KFHU/FHU METAR and TAF weather

Enter ICAO airport designator
Station Type Date Time Source
KFHU METAR 2019/10/18 10:58 UTC NOAA

KFHU 181058Z AUTO 14004KT 10SM FEW047 17/08 A2990 RMK AO2 SLP055 T01700082


Station Type Date Time Source
KFHU Decoded METAR 2019/10/18 10:58 UTC NOAA

Fort Huachuca, Libby AAF Ft Huachuca, AZ, United States (KFHU) 46-98N 110-20W
Oct 18, 2019 - 06:58 AM EDT / 2019.10.18 1058 UTC
Wind: from the SE (140 degrees) at 5 MPH (4 KT):0
Visibility: 10 mile(s):0
Sky conditions: mostly clear
Temperature: 62.6 F (17.0 C)
Dew Point: 46.8 F (8.2 C)
Relative Humidity: 56%
Pressure (altimeter): 29.9 in. Hg (1012 hPa)
ob: KFHU 181058Z AUTO 14004KT 10SM FEW047 17/08 A2990 RMK AO2 SLP055 T01700082
cycle: 11

Station Type Date Time Source
KFHU TAF 2019/10/18 10:03 UTC NOAA

TAF KFHU 181000Z 1810/1916 VRB06KT 9999 SKC QNH2989INS
BECMG 1816/1817 25010G15KT 9999 SKC 520005 QNH2992INS
TEMPO 1818/1822 27015G25KT 530009
BECMG 1821/1822 27015KT 9999 SKC 520004 QNH2993INS
BECMG 1903/1904 VRB06KT 9999 SKC QNH2995INS TX24/1821Z TN16/1813Z

Example: see airport list